Time;durP1;ratioP1;P1;durP2;ratioP2;P2;SDS_P1;SDS_P2;PMS_P1;PMS_P2;Temp;Humidity;BMP_temperature;BMP_pressure;BME280_temperature;BME280_humidity;BME280_pressure;Samples;Min_cycle;Max_cycle;Signal;HPM_P1;HPM_P2
2021/06/12 00:01:29;;;;;;;5.63;3.17;;;20.70;91.30;;;;;;4985629;28;20510;-77
2021/06/12 00:03:54;;;;;;;7.70;3.53;;;20.70;91.40;;;;;;4977730;28;20059;-77
2021/06/12 00:06:20;;;;;;;6.80;3.38;;;20.70;92.40;;;;;;4977441;28;20038;-76
2021/06/12 00:08:48;;;;;;;6.70;3.45;;;20.60;91.30;;;;;;4979833;28;20109;-76
2021/06/12 00:11:13;;;;;;;6.68;3.35;;;20.60;91.40;;;;;;4977208;28;20042;-77
2021/06/12 00:13:39;;;;;;;4.85;3.00;;;20.60;91.10;;;;;;4992686;28;20365;-76
2021/06/12 00:16:05;;;;;;;6.20;3.17;;;20.60;91.00;;;;;;4976700;28;20368;-76
2021/06/12 00:18:30;;;;;;;6.63;3.50;;;20.60;90.70;;;;;;4978247;28;20404;-77
2021/06/12 00:20:57;;;;;;;7.88;3.70;;;20.70;91.10;;;;;;4994457;28;20035;-77
2021/06/12 00:23:26;;;;;;;5.72;3.25;;;20.70;91.50;;;;;;4984604;28;20464;-77
2021/06/12 00:25:53;;;;;;;5.75;3.15;;;20.70;90.50;;;;;;4972404;28;20125;-77
2021/06/12 00:28:19;;;;;;;6.55;3.30;;;20.70;91.80;;;;;;4975870;28;20034;-77
2021/06/12 00:30:45;;;;;;;6.95;3.13;;;20.70;92.00;;;;;;4977097;28;20034;-76
2021/06/12 00:33:11;;;;;;;5.88;3.30;;;20.70;92.70;;;;;;4977770;28;20037;-77
2021/06/12 00:35:36;;;;;;;5.50;3.00;;;20.70;92.30;;;;;;4963927;28;20516;-77
2021/06/12 00:38:02;;;;;;;5.82;2.92;;;20.70;92.70;;;;;;4988732;28;20030;-77
2021/06/12 00:40:32;;;;;;;5.40;3.40;;;20.60;92.50;;;;;;4977195;28;20114;-76
2021/06/12 00:43:00;;;;;;;6.72;3.20;;;20.70;92.90;;;;;;4978722;28;20093;-76
2021/06/12 00:45:28;;;;;;;6.75;3.58;;;20.60;92.40;;;;;;4977555;28;20019;-78
2021/06/12 00:47:54;;;;;;;8.07;3.70;;;20.60;92.80;;;;;;4989111;28;20027;-77
2021/06/12 00:50:23;;;;;;;6.40;3.58;;;20.60;92.20;;;;;;4988385;28;20081;-77
2021/06/12 00:52:49;;;;;;;7.50;3.40;;;20.60;92.30;;;;;;4988117;28;20041;-77
2021/06/12 00:55:15;;;;;;;8.20;3.80;;;20.60;93.20;;;;;;4988035;28;20400;-77
2021/06/12 00:57:41;;;;;;;6.05;2.95;;;20.60;95.00;;;;;;4994318;28;20478;-78
2021/06/12 01:00:09;;;;;;;5.30;2.95;;;20.60;97.80;;;;;;4988712;28;20030;-79
2021/06/12 01:02:37;;;;;;;5.60;3.10;;;20.60;96.40;;;;;;4987661;28;20039;-79
2021/06/12 01:05:08;;;;;;;5.40;3.15;;;20.50;97.60;;;;;;4977720;28;20524;-79
2021/06/12 01:07:34;;;;;;;5.32;3.10;;;20.50;98.30;;;;;;4981475;28;20034;-79
2021/06/12 01:10:02;;;;;;;5.40;3.50;;;20.50;98.40;;;;;;4992387;28;20049;-79
2021/06/12 01:12:54;;;;;;;6.55;3.33;;;20.50;97.80;;;;;;4977934;28;20084;-79
2021/06/12 01:15:20;;;;;;;6.07;3.40;;;20.50;98.30;;;;;;4975860;28;20034;-79
2021/06/12 01:17:58;;;;;;;5.22;3.05;;;20.40;98.10;;;;;;4987537;28;20048;-79
2021/06/12 01:21:01;;;;;;;7.95;3.55;;;20.30;98.40;;;;;;4987047;28;20106;-79
2021/06/12 01:24:05;;;;;;;6.68;3.53;;;20.30;99.90;;;;;;4976279;28;20046;-79
2021/06/12 01:26:56;;;;;;;7.63;3.70;;;20.30;99.90;;;;;;4986318;28;20665;-79
2021/06/12 01:29:31;;;;;;;6.55;4.10;;;20.20;99.90;;;;;;4986887;28;20580;-80
2021/06/12 01:31:57;;;;;;;7.75;3.80;;;20.10;99.90;;;;;;4985711;28;20042;-79
2021/06/12 01:34:25;;;;;;;7.45;4.00;;;20.10;99.80;;;;;;4971427;28;20038;-79
2021/06/12 01:36:55;;;;;;;8.07;4.00;;;20.10;99.90;;;;;;4987940;28;20026;-79
2021/06/12 01:39:24;;;;;;;7.00;3.70;;;20.00;99.90;;;;;;4985387;28;20062;-79
2021/06/12 01:41:53;;;;;;;8.40;4.30;;;20.00;99.90;;;;;;4986988;28;20125;-79
2021/06/12 01:44:18;;;;;;;6.70;4.20;;;19.90;99.90;;;;;;4977344;28;20088;-79
2021/06/12 01:46:47;;;;;;;9.15;4.45;;;19.90;99.90;;;;;;4986479;28;20433;-79
2021/06/12 01:49:14;;;;;;;6.05;4.30;;;19.80;99.90;;;;;;4971557;28;20034;-79
2021/06/12 01:51:39;;;;;;;9.75;4.70;;;19.80;99.90;;;;;;4987321;28;20041;-79
2021/06/12 01:54:05;;;;;;;9.13;4.65;;;19.70;99.90;;;;;;4990772;28;20453;-78
2021/06/12 01:56:35;;;;;;;7.97;4.55;;;19.70;99.90;;;;;;4973987;28;20621;-79
2021/06/12 01:59:03;;;;;;;7.03;4.88;;;19.60;99.90;;;;;;4990018;28;20070;-79
2021/06/12 02:01:29;;;;;;;6.13;4.55;;;19.50;99.90;;;;;;4985630;28;20040;-79
2021/06/12 02:03:57;;;;;;;7.80;4.63;;;19.50;99.90;;;;;;4985727;28;20050;-79
2021/06/12 02:06:23;;;;;;;5.93;4.25;;;19.50;99.90;;;;;;4970729;28;20030;-79
2021/06/12 02:08:53;;;;;;;7.68;5.20;;;19.40;99.90;;;;;;4986177;28;20037;-80
2021/06/12 02:11:19;;;;;;;7.18;4.30;;;19.40;99.90;;;;;;4978815;28;20030;-79
2021/06/12 02:13:46;;;;;;;7.45;4.43;;;19.30;99.90;;;;;;4990806;28;20038;-79
2021/06/12 02:16:13;;;;;;;6.18;4.32;;;19.30;99.90;;;;;;4979528;28;20039;-80
2021/06/12 02:18:39;;;;;;;7.00;4.88;;;19.20;99.90;;;;;;4987315;28;20054;-80
2021/06/12 02:21:04;;;;;;;7.05;5.18;;;19.20;99.90;;;;;;4986456;28;20679;-79
2021/06/12 02:23:32;;;;;;;8.63;4.90;;;19.10;99.90;;;;;;4971421;28;20533;-79
2021/06/12 02:25:58;;;;;;;9.10;5.20;;;19.10;99.90;;;;;;4977216;28;20115;-79
2021/06/12 02:28:26;;;;;;;8.77;4.82;;;19.10;99.90;;;;;;4970570;28;20049;-79
2021/06/12 02:30:55;;;;;;;8.02;5.40;;;19.00;99.90;;;;;;4986028;28;20035;-79
2021/06/12 02:33:21;;;;;;;8.88;5.13;;;19.00;99.90;;;;;;4986786;28;20038;-79
2021/06/12 02:35:47;;;;;;;8.05;5.25;;;18.90;99.90;;;;;;4974446;28;20109;-79
2021/06/12 02:38:13;;;;;;;8.05;5.32;;;18.90;99.90;;;;;;4986878;28;20046;-79
2021/06/12 02:40:40;;;;;;;8.38;5.05;;;18.90;99.90;;;;;;4985706;28;20510;-79
2021/06/12 02:43:08;;;;;;;8.70;4.90;;;18.80;99.90;;;;;;4990672;28;20037;-79
2021/06/12 02:45:34;;;;;;;8.43;4.80;;;18.80;99.90;;;;;;4985500;28;20070;-79
2021/06/12 02:48:03;;;;;;;9.07;4.30;;;18.70;99.90;;;;;;4986060;28;22011;-79
2021/06/12 02:50:36;;;;;;;7.38;4.40;;;18.70;99.90;;;;;;4974270;28;20030;-79
2021/06/12 02:53:04;;;;;;;8.02;4.63;;;18.60;99.90;;;;;;4976535;28;20060;-79
2021/06/12 02:55:35;;;;;;;7.80;4.28;;;18.70;99.90;;;;;;4986565;28;20547;-78
2021/06/12 02:58:03;;;;;;;7.55;4.82;;;18.60;99.90;;;;;;4989708;28;20048;-79
2021/06/12 03:00:31;;;;;;;7.90;4.63;;;18.60;99.90;;;;;;4988287;28;20039;-79
2021/06/12 03:02:57;;;;;;;6.78;4.55;;;18.60;99.90;;;;;;4994188;28;20038;-79
2021/06/12 03:05:27;;;;;;;6.68;4.00;;;18.60;99.90;;;;;;4998276;28;20033;-79
2021/06/12 03:07:54;;;;;;;6.03;4.43;;;18.50;99.90;;;;;;4992177;28;20023;-79
2021/06/12 03:10:30;;;;;;;7.88;4.35;;;18.50;99.90;;;;;;4973261;28;20538;-79
2021/06/12 03:12:56;;;;;;;6.35;3.97;;;18.50;99.90;;;;;;4986378;28;20061;-79
2021/06/12 03:15:24;;;;;;;7.25;4.15;;;18.50;99.90;;;;;;4979205;28;20512;-79
2021/06/12 03:17:50;;;;;;;7.20;4.00;;;18.50;99.90;;;;;;4992128;28;20035;-79
2021/06/12 03:20:20;;;;;;;7.75;3.78;;;18.40;99.90;;;;;;4989130;28;20034;-79
2021/06/12 03:22:47;;;;;;;6.53;4.00;;;18.40;99.90;;;;;;4988893;28;20033;-80
2021/06/12 03:25:18;;;;;;;5.55;3.63;;;18.40;99.90;;;;;;4979451;28;20146;-79
2021/06/12 03:27:44;;;;;;;6.78;3.45;;;18.40;99.90;;;;;;4987802;28;20026;-78
2021/06/12 03:30:10;;;;;;;7.72;3.58;;;18.40;99.90;;;;;;4969708;28;20064;-79
2021/06/12 03:32:36;;;;;;;7.95;3.92;;;18.40;99.90;;;;;;4979648;28;20031;-78
2021/06/12 03:35:05;;;;;;;7.05;3.60;;;18.40;99.90;;;;;;4989274;28;20456;-79
2021/06/12 03:37:36;;;;;;;6.75;3.47;;;18.40;99.90;;;;;;4989722;28;20034;-78
2021/06/12 03:40:03;;;;;;;6.70;3.63;;;18.30;99.90;;;;;;4974227;28;21921;-79
2021/06/12 03:42:31;;;;;;;5.95;3.40;;;18.30;99.90;;;;;;4977630;28;20168;-79
2021/06/12 03:44:58;;;;;;;5.85;3.25;;;18.30;99.90;;;;;;4985771;28;20049;-79
2021/06/12 03:47:26;;;;;;;5.78;3.38;;;18.30;99.90;;;;;;4980791;28;20058;-78
2021/06/12 03:49:52;;;;;;;7.57;3.50;;;18.30;99.90;;;;;;4977552;28;20039;-78
2021/06/12 03:52:23;;;;;;;6.65;3.72;;;18.30;99.90;;;;;;4990815;28;20485;-79
2021/06/12 03:54:48;;;;;;;6.00;3.20;;;18.30;99.90;;;;;;4998403;28;20453;-79
2021/06/12 03:57:16;;;;;;;7.10;3.50;;;18.30;99.90;;;;;;4985553;28;20042;-78
2021/06/12 03:59:43;;;;;;;6.90;3.30;;;18.30;99.90;;;;;;4972750;28;20634;-79
2021/06/12 04:02:11;;;;;;;6.75;3.30;;;18.30;99.90;;;;;;4984202;28;20105;-79
2021/06/12 04:04:37;;;;;;;4.85;3.22;;;18.30;99.90;;;;;;4995180;28;20165;-78
2021/06/12 04:07:03;;;;;;;5.70;3.40;;;18.40;99.90;;;;;;4992983;28;20049;-79
2021/06/12 04:09:31;;;;;;;6.03;3.20;;;18.40;99.90;;;;;;4988615;28;20093;-78
2021/06/12 04:11:56;;;;;;;5.18;3.10;;;18.40;99.90;;;;;;4977851;28;20034;-78
2021/06/12 04:14:22;;;;;;;8.00;3.38;;;18.40;99.90;;;;;;4988578;28;20086;-79
2021/06/12 04:16:47;;;;;;;5.38;3.28;;;18.40;99.90;;;;;;4977314;28;20122;-79
2021/06/12 04:19:15;;;;;;;8.27;3.33;;;18.40;99.90;;;;;;4977257;28;20042;-79
2021/06/12 04:21:41;;;;;;;5.47;3.10;;;18.40;99.90;;;;;;4992917;28;20044;-79
2021/06/12 04:24:09;;;;;;;6.32;3.25;;;18.40;99.90;;;;;;4985705;28;20038;-79
2021/06/12 04:26:37;;;;;;;4.60;3.13;;;18.40;99.90;;;;;;4977295;28;20109;-79
2021/06/12 04:29:05;;;;;;;7.10;3.33;;;18.40;99.90;;;;;;4979078;28;20034;-79
2021/06/12 04:31:33;;;;;;;6.25;3.47;;;18.40;99.90;;;;;;4988679;28;20894;-79
2021/06/12 04:34:03;;;;;;;6.50;3.22;;;18.40;99.90;;;;;;4987900;28;20080;-79
2021/06/12 04:36:29;;;;;;;6.70;3.20;;;18.40;99.90;;;;;;4977154;28;20060;-79
2021/06/12 04:38:57;;;;;;;5.50;3.10;;;18.40;99.90;;;;;;4978299;28;20474;-79
2021/06/12 04:41:27;;;;;;;5.68;3.05;;;18.40;99.90;;;;;;4977302;28;20030;-80
2021/06/12 04:43:55;;;;;;;6.45;3.65;;;18.40;99.90;;;;;;4976986;28;20041;-79
2021/06/12 04:46:25;;;;;;;7.13;3.17;;;18.40;99.90;;;;;;4976692;28;20169;-79
2021/06/12 04:48:51;;;;;;;5.10;2.95;;;18.40;99.90;;;;;;4993271;28;20069;-79
2021/06/12 04:51:17;;;;;;;5.65;3.30;;;18.40;99.90;;;;;;4987010;28;20031;-79
2021/06/12 04:53:42;;;;;;;6.65;3.13;;;18.50;99.90;;;;;;4982603;28;20053;-79
2021/06/12 04:56:08;;;;;;;5.68;3.15;;;18.50;99.90;;;;;;4979566;28;20047;-79
2021/06/12 04:58:36;;;;;;;7.50;3.25;;;18.50;99.90;;;;;;4990851;28;20088;-79
2021/06/12 05:01:03;;;;;;;5.18;3.10;;;18.50;99.90;;;;;;4996888;28;20030;-79
2021/06/12 05:03:29;;;;;;;6.40;3.47;;;18.50;99.90;;;;;;4997173;28;20042;-80
2021/06/12 05:05:58;;;;;;;5.22;3.05;;;18.50;99.90;;;;;;4979905;28;20893;-80
2021/06/12 05:08:23;;;;;;;6.03;3.35;;;18.50;99.90;;;;;;4977871;28;20037;-80
2021/06/12 05:10:54;;;;;;;5.78;3.58;;;18.60;99.90;;;;;;4987396;28;20039;-80
2021/06/12 05:13:19;;;;;;;8.25;3.47;;;18.60;99.90;;;;;;4978800;28;20042;-79
2021/06/12 05:15:47;;;;;;;6.72;3.28;;;18.60;99.90;;;;;;4981487;28;20135;-80
2021/06/12 05:18:14;;;;;;;7.13;3.95;;;18.70;99.90;;;;;;4992350;28;20085;-80
2021/06/12 05:20:40;;;;;;;6.75;4.20;;;18.70;99.90;;;;;;4986937;28;20141;-80
2021/06/12 05:23:08;;;;;;;7.75;4.20;;;18.70;99.90;;;;;;4976750;28;20521;-80
2021/06/12 05:25:36;;;;;;;12.82;8.80;;;18.80;99.90;;;;;;4987584;28;20027;-79
2021/06/12 05:28:03;;;;;;;10.80;7.93;;;18.80;99.90;;;;;;4986748;28;20434;-81
2021/06/12 05:30:28;;;;;;;13.43;7.93;;;18.90;99.90;;;;;;4984610;28;20038;-80
2021/06/12 05:32:54;;;;;;;11.90;7.20;;;18.90;99.90;;;;;;4978809;28;20030;-80
2021/06/12 05:35:20;;;;;;;12.13;7.20;;;19.00;99.90;;;;;;4987495;28;20053;-79
2021/06/12 05:37:50;;;;;;;14.20;9.20;;;19.10;99.90;;;;;;4987274;28;20065;-80
2021/06/12 05:40:21;;;;;;;13.35;9.00;;;19.10;99.90;;;;;;4975930;28;20038;-79
2021/06/12 05:42:46;;;;;;;14.43;8.38;;;19.10;99.90;;;;;;4975864;28;20040;-79
2021/06/12 05:45:15;;;;;;;13.30;8.88;;;19.20;99.90;;;;;;4975185;28;20031;-81
2021/06/12 05:47:40;;;;;;;13.50;8.30;;;19.20;99.90;;;;;;4975297;28;20471;-78
2021/06/12 05:50:06;;;;;;;13.70;8.95;;;19.30;99.90;;;;;;4975191;28;20034;-80
2021/06/12 05:52:32;;;;;;;14.18;8.52;;;19.30;99.90;;;;;;4976054;28;20101;-78
2021/06/12 05:54:57;;;;;;;10.80;7.30;;;19.40;99.90;;;;;;4970728;28;20452;-79
2021/06/12 05:57:23;;;;;;;11.80;7.68;;;19.40;99.90;;;;;;4990939;28;20034;-80
2021/06/12 05:59:51;;;;;;;11.80;7.03;;;19.50;99.90;;;;;;4976430;28;20050;-80
2021/06/12 06:02:19;;;;;;;13.05;7.75;;;19.50;99.90;;;;;;4985970;28;20030;-80
2021/06/12 06:04:47;;;;;;;15.35;8.57;;;19.50;99.90;;;;;;4974542;28;20070;-80
2021/06/12 06:07:13;;;;;;;13.20;7.60;;;19.60;99.90;;;;;;4970337;28;20117;-81
2021/06/12 06:09:38;;;;;;;12.45;8.45;;;19.60;99.90;;;;;;4974124;28;20031;-80
2021/06/12 06:12:05;;;;;;;11.77;7.80;;;19.60;99.90;;;;;;4974916;28;20035;-80
2021/06/12 06:14:30;;;;;;;12.35;7.85;;;19.70;99.90;;;;;;4986160;28;20053;-81
2021/06/12 06:16:57;;;;;;;13.85;8.82;;;19.80;99.90;;;;;;4974973;28;20030;-77
2021/06/12 06:19:22;;;;;;;12.30;8.20;;;19.70;99.90;;;;;;4975796;28;20039;-80
2021/06/12 06:21:48;;;;;;;12.05;7.10;;;19.80;99.90;;;;;;4976222;28;20144;-81
2021/06/12 06:24:16;;;;;;;11.38;6.45;;;19.80;99.90;;;;;;4974770;28;20416;-80
2021/06/12 06:26:44;;;;;;;9.10;5.80;;;19.90;99.90;;;;;;4975317;28;20052;-80
2021/06/12 06:29:10;;;;;;;11.50;6.57;;;20.00;99.90;;;;;;4974965;28;20046;-80
2021/06/12 06:31:39;;;;;;;10.60;7.30;;;20.00;99.90;;;;;;4990174;28;20153;-81
2021/06/12 06:34:04;;;;;;;9.80;6.22;;;20.00;99.90;;;;;;4983407;28;20034;-81
2021/06/12 06:36:35;;;;;;;9.52;6.53;;;20.10;99.90;;;;;;4995358;28;20035;-80
2021/06/12 06:39:00;;;;;;;13.25;7.72;;;20.20;99.90;;;;;;4978415;28;20487;-82
2021/06/12 06:41:28;;;;;;;12.73;8.82;;;20.20;99.90;;;;;;4983261;28;20022;-81
2021/06/12 06:43:54;;;;;;;17.95;11.52;;;20.20;99.90;;;;;;4991868;28;20037;-80
2021/06/12 06:46:19;;;;;;;18.02;10.68;;;20.20;99.90;;;;;;4997741;28;20408;-80
2021/06/12 06:48:45;;;;;;;15.68;9.65;;;20.20;99.90;;;;;;4996649;28;20029;-80
2021/06/12 06:51:11;;;;;;;18.02;11.98;;;20.30;99.90;;;;;;4999128;28;20424;-80
2021/06/12 06:53:39;;;;;;;19.38;13.35;;;20.40;99.90;;;;;;4981776;28;20034;-80
2021/06/12 06:56:07;;;;;;;16.85;9.68;;;20.40;99.90;;;;;;4995040;28;20027;-80
2021/06/12 06:58:35;;;;;;;21.23;13.77;;;20.50;99.90;;;;;;4995023;28;20042;-79
2021/06/12 07:01:01;;;;;;;19.63;11.52;;;20.50;99.90;;;;;;4998457;28;20419;-79
2021/06/12 07:03:26;;;;;;;16.75;11.10;;;20.60;99.90;;;;;;4989853;28;20050;-80
2021/06/12 07:05:55;;;;;;;18.17;11.52;;;20.60;99.90;;;;;;4997118;28;20345;-80
2021/06/12 07:08:21;;;;;;;22.77;13.35;;;20.70;99.90;;;;;;4996158;28;20020;-79
2021/06/12 07:10:49;;;;;;;18.13;12.23;;;20.70;99.90;;;;;;4985154;28;20502;-80
2021/06/12 07:13:22;;;;;;;18.98;12.75;;;20.80;99.90;;;;;;4993706;28;20045;-81
2021/06/12 07:15:50;;;;;;;18.60;11.73;;;20.90;99.90;;;;;;4994369;28;20030;-80
2021/06/12 07:18:18;;;;;;;18.88;12.63;;;20.90;99.90;;;;;;4988722;28;20467;-81
2021/06/12 07:20:47;;;;;;;19.98;12.30;;;21.00;99.90;;;;;;4979465;28;20117;-80
2021/06/12 07:23:16;;;;;;;17.25;11.32;;;21.00;99.90;;;;;;4978574;28;20062;-81
2021/06/12 07:25:45;;;;;;;21.98;12.43;;;21.10;99.90;;;;;;4979731;28;20160;-82
2021/06/12 07:28:11;;;;;;;15.68;10.50;;;21.20;99.90;;;;;;4994221;28;20023;-81
2021/06/12 07:30:41;;;;;;;15.30;10.57;;;21.30;99.90;;;;;;4988803;28;20169;-81
2021/06/12 07:33:11;;;;;;;12.48;9.63;;;21.40;99.90;;;;;;4988268;28;20043;-82
2021/06/12 07:35:37;;;;;;;14.73;10.10;;;21.50;99.90;;;;;;4977665;28;20046;-82
2021/06/12 07:38:03;;;;;;;13.82;9.93;;;21.60;99.90;;;;;;4973652;28;20029;-82
2021/06/12 07:40:31;;;;;;;13.32;9.38;;;21.80;99.90;;;;;;4989187;28;20046;-82
2021/06/12 07:42:56;;;;;;;12.27;8.77;;;21.90;99.90;;;;;;4989195;28;20035;-82
2021/06/12 07:45:22;;;;;;;15.73;11.50;;;22.10;99.90;;;;;;4972935;28;20117;-82
2021/06/12 07:47:48;;;;;;;13.73;9.60;;;22.20;99.90;;;;;;4976356;28;20490;-83
2021/06/12 07:50:14;;;;;;;20.83;18.63;;;22.40;99.90;;;;;;4982932;28;20035;-73
2021/06/12 07:52:42;;;;;;;13.43;10.32;;;22.60;99.90;;;;;;4992518;28;20409;-74
2021/06/12 07:55:08;;;;;;;18.20;13.48;;;22.80;99.90;;;;;;4994117;28;20030;-82
2021/06/12 07:57:34;;;;;;;12.93;9.98;;;23.00;99.90;;;;;;4994647;28;20041;-82
2021/06/12 08:00:03;;;;;;;16.98;11.00;;;23.20;99.90;;;;;;4990692;28;20496;-82
2021/06/12 08:02:32;;;;;;;15.85;11.75;;;23.30;99.90;;;;;;4995971;28;20109;-80
2021/06/12 08:04:57;;;;;;;15.75;10.75;;;23.30;99.90;;;;;;4994378;28;20702;-72
2021/06/12 08:07:25;;;;;;;13.95;9.27;;;23.30;99.90;;;;;;4988173;28;20117;-73
2021/06/12 08:09:54;;;;;;;11.63;8.50;;;23.30;95.30;;;;;;5007636;28;20093;-72
2021/06/12 08:12:20;;;;;;;12.70;8.60;;;23.40;98.20;;;;;;4993304;28;20459;-72
2021/06/12 08:14:49;;;;;;;10.57;7.72;;;23.30;94.00;;;;;;4997392;28;20030;-73
2021/06/12 08:17:16;;;;;;;12.75;7.63;;;23.30;97.20;;;;;;4998589;28;20041;-82
2021/06/12 08:19:42;;;;;;;11.48;8.50;;;23.20;94.50;;;;;;4992712;28;20054;-81
2021/06/12 08:22:11;;;;;;;10.80;7.55;;;23.30;96.10;;;;;;4991090;28;20050;-82
2021/06/12 08:24:40;;;;;;;9.95;7.18;;;23.40;96.90;;;;;;4994813;28;22000;-82
2021/06/12 08:27:06;;;;;;;10.05;7.43;;;23.60;98.50;;;;;;4994272;28;20096;-82
2021/06/12 08:29:34;;;;;;;8.82;6.40;;;23.50;96.10;;;;;;4987826;28;20400;-81
2021/06/12 08:32:00;;;;;;;9.95;6.85;;;23.50;91.10;;;;;;4991822;28;20483;-81
2021/06/12 08:34:26;;;;;;;11.45;7.47;;;23.50;96.10;;;;;;4983077;28;20030;-81
2021/06/12 08:36:51;;;;;;;9.43;7.50;;;23.50;94.50;;;;;;4993253;28;20034;-82
2021/06/12 08:39:19;;;;;;;10.45;7.63;;;23.50;90.70;;;;;;4996741;28;20030;-83
2021/06/12 08:41:47;;;;;;;10.32;7.50;;;23.60;92.00;;;;;;4992979;28;20033;-82
2021/06/12 08:44:13;;;;;;;9.32;6.70;;;23.40;89.50;;;;;;4992234;28;20031;-82
2021/06/12 08:46:39;;;;;;;9.50;6.85;;;23.60;95.20;;;;;;4997716;28;20388;-83
2021/06/12 08:49:05;;;;;;;10.32;6.75;;;23.70;94.70;;;;;;4998051;28;20106;-81
2021/06/12 08:51:33;;;;;;;9.02;6.28;;;23.80;93.50;;;;;;4982861;28;21917;-82
2021/06/12 08:53:59;;;;;;;9.25;6.70;;;23.80;90.70;;;;;;4996167;28;20041;-81
2021/06/12 08:56:25;;;;;;;9.57;6.40;;;23.80;84.90;;;;;;4997282;28;20516;-81
2021/06/12 08:58:53;;;;;;;8.23;5.78;;;23.80;91.00;;;;;;4991099;28;20032;-82
2021/06/12 09:01:20;;;;;;;9.57;5.90;;;23.80;87.10;;;;;;4990208;28;20038;-81
2021/06/12 09:03:48;;;;;;;8.80;6.13;;;23.90;88.40;;;;;;4998605;28;20050;-82
2021/06/12 09:06:23;;;;;;;9.23;6.00;;;23.90;88.70;;;;;;4988650;28;20050;-82
2021/06/12 09:08:49;;;;;;;8.35;5.60;;;24.10;92.20;;;;;;4980108;28;20528;-82
2021/06/12 09:11:18;;;;;;;8.50;5.68;;;24.10;89.20;;;;;;4987872;28;20110;-73
2021/06/12 09:13:48;;;;;;;9.55;6.13;;;24.10;85.80;;;;;;5006143;28;20100;-74
2021/06/12 09:16:33;;;;;;;8.48;5.57;;;24.00;82.70;;;;;;4992816;28;20030;-83
2021/06/12 09:19:23;;;;;;;7.65;4.80;;;24.10;84.80;;;;;;4995203;28;20072;-81
2021/06/12 09:21:59;;;;;;;7.97;5.57;;;24.20;90.00;;;;;;4997835;28;20072;-81
2021/06/12 09:24:35;;;;;;;7.57;5.50;;;24.10;79.20;;;;;;5112263;27;20216;-83
2021/06/12 09:27:02;;;;;;;7.60;5.03;;;24.10;86.60;;;;;;5088294;28;20028;-82
2021/06/12 09:29:42;;;;;;;5.93;4.47;;;24.00;87.70;;;;;;5086894;28;20028;-83
2021/06/12 09:32:11;;;;;;;7.78;5.13;;;23.90;84.30;;;;;;5088477;28;20518;-83
2021/06/12 09:34:37;;;;;;;7.07;4.75;;;24.00;89.80;;;;;;5087871;28;20519;-83
2021/06/12 09:37:14;;;;;;;6.93;4.43;;;23.90;82.70;;;;;;5086822;28;20032;-82
2021/06/12 09:39:40;;;;;;;6.45;3.67;;;24.00;81.80;;;;;;5086513;28;20012;-81
2021/06/12 09:42:06;;;;;;;6.25;4.10;;;23.80;79.40;;;;;;5086296;28;20100;-82
2021/06/12 09:44:44;;;;;;;5.75;3.92;;;23.80;85.50;;;;;;5066804;28;20017;-81
2021/06/12 09:47:24;;;;;;;6.10;3.90;;;23.80;88.40;;;;;;5074055;28;20055;-83
2021/06/12 09:49:50;;;;;;;6.20;3.80;;;23.90;85.90;;;;;;5103504;28;20023;-82
2021/06/12 09:52:23;;;;;;;5.65;4.03;;;24.00;93.80;;;;;;5089553;28;20025;-81
2021/06/12 09:54:53;;;;;;;5.63;3.70;;;24.10;96.80;;;;;;5102283;28;20032;-82
2021/06/12 09:57:21;;;;;;;6.03;4.20;;;23.90;79.90;;;;;;5068101;28;20107;-82
2021/06/12 09:59:54;;;;;;;5.80;3.83;;;24.00;86.50;;;;;;5085603;28;20016;-82
2021/06/12 10:02:44;;;;;;;6.35;4.18;;;24.20;93.00;;;;;;5074975;28;20456;-82
2021/06/12 10:05:11;;;;;;;5.45;3.58;;;24.20;87.50;;;;;;5088871;28;20032;-83
2021/06/12 10:07:37;;;;;;;5.38;3.10;;;24.10;86.80;;;;;;5100991;28;20476;-83
2021/06/12 10:10:05;;;;;;;5.65;3.28;;;24.00;84.40;;;;;;5087235;28;20028;-84
2021/06/12 10:12:31;;;;;;;4.60;3.00;;;24.00;84.80;;;;;;5090835;28;20024;-79
2021/06/12 10:14:59;;;;;;;4.40;2.90;;;24.00;82.30;;;;;;5086949;28;20745;-81
2021/06/12 10:17:32;;;;;;;4.65;2.63;;;23.90;84.30;;;;;;5085243;28;20040;-82
2021/06/12 10:19:57;;;;;;;4.80;2.50;;;24.00;82.10;;;;;;5089413;28;20032;-82
2021/06/12 10:22:23;;;;;;;5.47;2.38;;;23.90;81.90;;;;;;5093991;28;20847;-81
2021/06/12 10:24:49;;;;;;;4.78;2.47;;;23.90;77.90;;;;;;5090249;28;20023;-83
2021/06/12 10:27:15;;;;;;;4.60;2.72;;;24.00;79.80;;;;;;5074141;28;20620;-74
2021/06/12 10:29:45;;;;;;;6.03;3.40;;;24.00;82.00;;;;;;5104136;28;20103;-74
2021/06/12 10:32:13;;;;;;;3.50;2.22;;;24.20;84.40;;;;;;5084700;28;20040;-82
2021/06/12 10:34:42;;;;;;;4.68;2.45;;;24.20;81.10;;;;;;5067404;28;20027;-80
2021/06/12 10:37:11;;;;;;;4.43;2.33;;;24.30;82.20;;;;;;5078022;28;20032;-82
2021/06/12 10:39:42;;;;;;;3.97;2.30;;;24.20;76.70;;;;;;5071930;28;20039;-80
2021/06/12 10:42:23;;;;;;;5.63;2.53;;;24.10;78.90;;;;;;5074328;28;20080;-81
2021/06/12 10:44:53;;;;;;;4.50;2.40;;;24.10;76.30;;;;;;5074477;28;20025;-82
2021/06/12 10:47:38;;;;;;;5.32;2.72;;;24.10;84.10;;;;;;5072564;28;20477;-81
2021/06/12 10:50:26;;;;;;;3.63;2.50;;;24.00;75.70;;;;;;5061467;28;20624;-81
2021/06/12 10:52:54;;;;;;;3.80;2.30;;;24.10;75.80;;;;;;5078242;28;20082;-81
2021/06/12 10:55:43;;;;;;;3.75;2.47;;;24.10;76.60;;;;;;5074173;28;20051;-80
2021/06/12 10:58:31;;;;;;;4.28;2.67;;;24.30;80.40;;;;;;4371351;28;10000922;-81
2021/06/12 11:01:06;;;;;;;5.57;2.78;;;24.20;78.00;;;;;;5076351;28;20369;-80
2021/06/12 11:03:54;;;;;;;3.95;2.50;;;24.20;75.30;;;;;;5066596;28;20111;-81
2021/06/12 11:06:36;;;;;;;3.60;2.25;;;24.30;81.80;;;;;;5068802;28;20035;-80
2021/06/12 11:09:14;;;;;;;;;;;24.40;78.10;;;;;;5041935;28;20025;-82
2021/06/12 11:11:49;;;;;;;4.57;2.55;;;24.30;76.70;;;;;;5069316;28;19966;-82
2021/06/12 11:14:27;;;;;;;4.53;2.70;;;24.00;75.10;;;;;;5066892;28;20471;-82
2021/06/12 11:17:05;;;;;;;4.32;2.55;;;24.00;72.20;;;;;;5067143;28;20125;-81
2021/06/12 11:19:43;;;;;;;5.80;2.90;;;24.10;79.30;;;;;;5058552;28;20497;-81
2021/06/12 11:22:32;;;;;;;4.50;2.75;;;24.10;81.30;;;;;;5067578;28;20036;-81
2021/06/12 11:25:07;;;;;;;4.55;2.80;;;24.20;80.90;;;;;;5070955;28;20031;-80
2021/06/12 11:27:48;;;;;;;4.40;3.13;;;24.20;81.10;;;;;;5041521;28;20113;-81
2021/06/12 11:30:17;;;;;;;3.80;2.63;;;24.10;78.30;;;;;;5065449;28;20024;-78
2021/06/12 11:32:50;;;;;;;4.63;2.70;;;24.20;78.20;;;;;;5071412;28;20360;-80
2021/06/12 11:35:38;;;;;;;4.88;2.60;;;24.20;76.50;;;;;;5070464;28;20051;-82
2021/06/12 11:38:12;;;;;;;3.30;2.17;;;24.20;75.50;;;;;;5070870;28;20461;-85
2021/06/12 11:40:38;;;;;;;4.28;2.55;;;24.30;70.60;;;;;;5067813;28;20066;-76
2021/06/12 11:43:04;;;;;;;4.63;2.30;;;24.50;74.50;;;;;;5067438;28;20523;-81
2021/06/12 11:45:32;;;;;;;2.92;1.90;;;24.30;69.10;;;;;;4716205;28;10000470;-80
2021/06/12 11:48:17;;;;;;;3.08;2.00;;;24.30;67.00;;;;;;5071622;28;20480;-82
2021/06/12 11:50:49;;;;;;;2.90;1.90;;;24.40;69.00;;;;;;5067307;28;20028;-83
2021/06/12 11:53:15;;;;;;;3.00;1.90;;;24.40;69.00;;;;;;5068169;28;20034;-84
2021/06/12 11:55:41;;;;;;;3.25;1.70;;;24.30;67.10;;;;;;5063342;28;20029;-82
2021/06/12 11:58:07;;;;;;;3.25;2.10;;;24.50;68.00;;;;;;5078517;28;20036;-81
2021/06/12 12:00:37;;;;;;;4.00;1.92;;;24.60;71.80;;;;;;5051935;28;20093;-77
2021/06/12 12:03:13;;;;;;;3.60;2.08;;;24.60;67.50;;;;;;5070836;28;20080;-78
2021/06/12 12:05:48;;;;;;;3.25;2.22;;;24.50;65.40;;;;;;5072702;28;20111;-79
2021/06/12 12:08:20;;;;;;;5.78;2.20;;;24.30;63.60;;;;;;5070776;28;20040;-78
2021/06/12 12:10:55;;;;;;;4.60;2.50;;;24.30;66.30;;;;;;5070085;28;20036;-78
2021/06/12 12:13:37;;;;;;;4.88;2.45;;;24.30;71.60;;;;;;5051175;28;20036;-81
2021/06/12 12:16:17;;;;;;;4.93;2.63;;;24.30;69.00;;;;;;5069952;28;20052;-78
2021/06/12 12:18:47;;;;;;;5.30;2.60;;;24.00;67.20;;;;;;5075700;28;20032;-79
2021/06/12 12:21:15;;;;;;;4.55;2.90;;;23.90;70.20;;;;;;5087629;28;20036;-73
2021/06/12 12:23:41;;;;;;;4.82;2.80;;;24.00;72.60;;;;;;5070142;28;20079;-71
2021/06/12 12:26:15;;;;;;;5.80;2.60;;;23.80;69.40;;;;;;5073254;28;20448;-78
2021/06/12 12:29:13;;;;;;;4.25;2.60;;;23.90;69.80;;;;;;5069674;28;20465;-79
2021/06/12 12:31:46;;;;;;;4.38;2.80;;;24.00;78.10;;;;;;5064992;28;20572;-78
2021/06/12 12:34:12;;;;;;;4.70;2.70;;;23.90;72.00;;;;;;5066950;28;20021;-80
2021/06/12 12:36:47;;;;;;;4.85;3.03;;;24.00;75.30;;;;;;5070941;28;20043;-79
2021/06/12 12:39:15;;;;;;;5.93;2.78;;;24.00;74.50;;;;;;5066470;28;20081;-79
2021/06/12 12:41:53;;;;;;;6.30;3.20;;;24.00;76.00;;;;;;5069859;28;20477;-79
2021/06/12 12:44:19;;;;;;;6.72;3.47;;;23.90;73.00;;;;;;5068078;28;20036;-78
2021/06/12 12:46:46;;;;;;;5.93;3.55;;;23.70;76.10;;;;;;5071589;28;20027;-81
2021/06/12 12:49:33;;;;;;;6.10;3.70;;;23.60;77.00;;;;;;5057400;28;20021;-78
2021/06/12 12:52:02;;;;;;;7.32;4.28;;;23.40;79.20;;;;;;5059645;28;20052;-79
2021/06/12 12:54:36;;;;;;;7.63;4.55;;;23.30;78.90;;;;;;5073278;28;20024;-80